Time;durP1;ratioP1;P1;durP2;ratioP2;P2;SDS_P1;SDS_P2;PMS_P1;PMS_P2;Temp;Humidity;BMP_temperature;BMP_pressure;BME280_temperature;BME280_humidity;BME280_pressure;Samples;Min_cycle;Max_cycle;Signal;HPM_P1;HPM_P2
2022/10/08 00:00:57;;;;;;;9.80;3.53;;;13.50;99.90;;;;;;5095124;28;20040;-88
2022/10/08 00:03:26;;;;;;;11.38;3.42;;;13.50;99.90;;;;;;5096096;28;20047;-88
2022/10/08 00:05:56;;;;;;;10.23;3.38;;;13.30;99.90;;;;;;5095948;28;20083;-88
2022/10/08 00:08:22;;;;;;;9.85;3.03;;;13.40;99.90;;;;;;5095287;28;20092;-88
2022/10/08 00:10:56;;;;;;;9.40;3.10;;;13.40;99.90;;;;;;5115693;28;20512;-88
2022/10/08 00:13:24;;;;;;;9.80;3.10;;;13.40;99.90;;;;;;5097179;28;20100;-88
2022/10/08 00:15:50;;;;;;;9.55;3.25;;;13.40;99.90;;;;;;5096700;28;20089;-88
2022/10/08 00:18:15;;;;;;;10.18;3.20;;;13.30;99.90;;;;;;5115117;28;20053;-88
2022/10/08 00:20:41;;;;;;;9.73;3.05;;;13.90;99.90;;;;;;5096400;28;20040;-88
2022/10/08 00:23:07;;;;;;;8.40;3.13;;;13.30;99.90;;;;;;5096609;28;20046;-88
2022/10/08 00:25:41;;;;;;;10.90;3.42;;;13.90;99.90;;;;;;5107250;28;20131;-86
2022/10/08 00:28:10;;;;;;;11.32;3.25;;;13.50;99.90;;;;;;5094743;28;20052;-88
2022/10/08 00:30:38;;;;;;;12.98;4.00;;;13.40;99.90;;;;;;5077209;28;20040;-88
2022/10/08 00:33:05;;;;;;;8.57;3.15;;;13.30;99.90;;;;;;5083914;28;20400;-88
2022/10/08 00:35:38;;;;;;;14.10;3.30;;;13.30;99.90;;;;;;5085481;28;20442;-88
2022/10/08 00:38:06;;;;;;;8.80;3.13;;;13.30;99.90;;;;;;5094269;28;20505;-88
2022/10/08 00:40:40;;;;;;;11.95;2.97;;;13.00;99.90;;;;;;5092508;28;20052;-88
2022/10/08 00:43:14;;;;;;;12.73;3.33;;;14.30;99.90;;;;;;5114437;28;20043;-88
2022/10/08 00:45:41;;;;;;;10.95;3.00;;;13.20;99.90;;;;;;5113284;28;20125;-88
2022/10/08 00:48:11;;;;;;;11.88;2.70;;;13.40;99.90;;;;;;5082324;28;20031;-88
2022/10/08 00:50:38;;;;;;;10.80;2.90;;;14.20;99.90;;;;;;5080313;28;20036;-88
2022/10/08 00:53:06;;;;;;;6.93;2.80;;;13.20;99.90;;;;;;5092556;28;20061;-88
2022/10/08 00:55:33;;;;;;;8.80;2.75;;;13.80;99.90;;;;;;5113014;28;20036;-88
2022/10/08 00:58:08;;;;;;;9.57;2.58;;;13.20;99.90;;;;;;5113930;28;20473;-87
2022/10/08 01:00:34;;;;;;;7.07;2.50;;;13.20;99.90;;;;;;5113017;28;20079;-87
2022/10/08 01:03:02;;;;;;;7.75;2.67;;;13.20;99.90;;;;;;5113680;28;20050;-88
2022/10/08 01:05:45;;;;;;;9.23;2.92;;;13.70;99.90;;;;;;5114395;28;20497;-87
2022/10/08 01:08:30;;;;;;;7.53;2.50;;;13.20;99.90;;;;;;5079135;28;20047;-88
2022/10/08 01:11:16;;;;;;;12.15;3.03;;;13.20;99.90;;;;;;5114166;28;20047;-88
2022/10/08 01:14:00;;;;;;;11.80;3.00;;;13.10;99.90;;;;;;5115435;28;20047;-88
2022/10/08 01:16:41;;;;;;;8.77;2.67;;;13.10;99.90;;;;;;5114409;28;20285;-87
2022/10/08 01:19:16;;;;;;;8.43;2.90;;;13.10;99.90;;;;;;5096153;28;20043;-86
2022/10/08 01:22:03;;;;;;;8.23;2.60;;;13.10;99.90;;;;;;5111763;28;20051;-86
2022/10/08 01:27:33;;;;;;;6.32;2.70;;;13.20;99.90;;;;;;5078626;28;20122;-88
2022/10/08 01:30:04;;;;;;;7.60;2.58;;;13.50;99.90;;;;;;5098884;28;20080;-88
2022/10/08 01:32:37;;;;;;;8.82;2.60;;;13.90;99.90;;;;;;5074892;28;20095;-88
2022/10/08 01:35:10;;;;;;;10.45;2.95;;;13.30;99.90;;;;;;5082615;28;20040;-83
2022/10/08 01:37:39;;;;;;;9.63;2.50;;;13.00;99.90;;;;;;5074146;28;20086;-83
2022/10/08 01:40:11;;;;;;;14.10;2.70;;;13.00;99.90;;;;;;5093615;28;20036;-83
2022/10/08 01:42:39;;;;;;;9.43;2.53;;;13.00;99.90;;;;;;5083555;28;20126;-83
2022/10/08 01:45:14;;;;;;;6.38;2.08;;;12.90;99.90;;;;;;5112925;28;20048;-83
2022/10/08 01:47:43;;;;;;;6.85;2.50;;;12.90;99.90;;;;;;5075089;28;20047;-83
2022/10/08 01:50:32;;;;;;;6.28;2.30;;;13.60;99.90;;;;;;5076244;28;20036;-84
2022/10/08 01:53:02;;;;;;;9.30;2.08;;;13.40;99.90;;;;;;5081891;28;20047;-83
2022/10/08 01:55:51;;;;;;;8.15;2.22;;;12.90;99.90;;;;;;5073864;28;20044;-83
2022/10/08 01:58:27;;;;;;;9.48;2.22;;;12.70;99.90;;;;;;5108376;28;20492;-83
2022/10/08 02:00:54;;;;;;;8.85;2.42;;;12.70;99.90;;;;;;5075251;28;20047;-83
2022/10/08 02:03:20;;;;;;;10.00;2.50;;;14.00;99.90;;;;;;5092117;28;20097;-83
2022/10/08 02:05:49;;;;;;;7.25;2.38;;;13.30;99.90;;;;;;5083521;28;20040;-83
2022/10/08 02:08:15;;;;;;;8.07;2.50;;;12.60;99.90;;;;;;5092023;28;20040;-83
2022/10/08 02:10:44;;;;;;;8.02;2.30;;;12.60;99.90;;;;;;5106161;28;20118;-83
2022/10/08 02:13:10;;;;;;;9.88;2.50;;;12.50;99.90;;;;;;5077508;28;20050;-83
2022/10/08 02:15:53;;;;;;;8.93;2.50;;;12.60;99.90;;;;;;5094471;28;20466;-83
2022/10/08 02:18:39;;;;;;;7.97;2.35;;;12.50;99.90;;;;;;5077380;28;20571;-81
2022/10/08 02:21:25;;;;;;;8.30;2.92;;;12.40;99.90;;;;;;5094138;28;20540;-81
2022/10/08 02:24:03;;;;;;;6.13;2.13;;;12.50;99.90;;;;;;5094081;28;20068;-81
2022/10/08 02:26:35;;;;;;;8.98;2.55;;;12.50;99.90;;;;;;5093966;28;20487;-81
2022/10/08 02:29:12;;;;;;;9.32;2.42;;;12.40;99.90;;;;;;5077310;28;20086;-81
2022/10/08 02:32:16;;;;;;;6.28;2.28;;;12.50;99.90;;;;;;5112225;28;20452;-81
2022/10/08 02:35:08;;;;;;;7.50;2.53;;;12.40;99.90;;;;;;5112303;28;20479;-81
2022/10/08 02:37:51;;;;;;;7.45;2.70;;;12.60;99.90;;;;;;5093823;28;20051;-81
2022/10/08 02:40:18;;;;;;;9.50;2.70;;;13.50;99.90;;;;;;5061240;28;20048;-81
2022/10/08 02:42:51;;;;;;;8.57;2.60;;;12.40;99.90;;;;;;5084986;28;20027;-81
2022/10/08 02:45:29;;;;;;;10.63;2.90;;;13.20;99.90;;;;;;5075172;28;20385;-81
2022/10/08 02:48:04;;;;;;;9.30;2.60;;;13.20;99.90;;;;;;5107642;28;20047;-81
2022/10/08 02:50:31;;;;;;;9.85;2.88;;;12.30;99.90;;;;;;5112083;28;20061;-81
2022/10/08 02:52:58;;;;;;;7.97;3.10;;;12.30;99.90;;;;;;5102207;28;20078;-81
2022/10/08 02:55:47;;;;;;;10.15;3.00;;;13.30;99.90;;;;;;5083863;28;20105;-81
2022/10/08 02:58:13;;;;;;;16.45;2.65;;;13.10;99.90;;;;;;5090040;28;20051;-81
2022/10/08 03:01:09;;;;;;;8.18;2.60;;;12.10;99.90;;;;;;5090203;28;20055;-81
2022/10/08 03:03:39;;;;;;;7.80;2.55;;;12.10;99.90;;;;;;5074692;28;20135;-81
2022/10/08 03:06:10;;;;;;;10.80;2.90;;;12.30;99.90;;;;;;5085009;28;20083;-81
2022/10/08 03:08:44;;;;;;;10.25;2.80;;;12.10;99.90;;;;;;5077106;28;20048;-81
2022/10/08 03:11:11;;;;;;;10.10;2.83;;;12.10;99.90;;;;;;5091178;28;20044;-81
2022/10/08 03:13:40;;;;;;;8.68;2.67;;;12.00;99.90;;;;;;5114758;28;20357;-81
2022/10/08 03:16:10;;;;;;;7.38;2.95;;;12.60;99.90;;;;;;5097050;28;20044;-81
2022/10/08 03:18:37;;;;;;;10.85;2.67;;;12.00;99.90;;;;;;5113908;28;20123;-81
2022/10/08 03:21:05;;;;;;;8.65;3.13;;;12.90;99.90;;;;;;5115139;28;20432;-81
2022/10/08 03:23:31;;;;;;;10.73;3.35;;;11.90;99.90;;;;;;5082105;28;20081;-82
2022/10/08 03:25:56;;;;;;;10.30;2.70;;;12.30;99.90;;;;;;5079631;28;20044;-81
2022/10/08 03:28:22;;;;;;;10.45;3.05;;;11.90;99.90;;;;;;5060118;28;20504;-81
2022/10/08 03:30:48;;;;;;;9.75;3.00;;;11.90;99.90;;;;;;5094035;28;20128;-81
2022/10/08 03:33:13;;;;;;;10.02;3.20;;;12.20;99.90;;;;;;5114795;28;20050;-81
2022/10/08 03:35:46;;;;;;;6.97;3.20;;;11.90;99.90;;;;;;5101920;28;20052;-81
2022/10/08 03:38:14;;;;;;;12.32;3.53;;;11.90;99.90;;;;;;5096281;28;20055;-81
2022/10/08 03:40:41;;;;;;;9.82;3.10;;;13.00;99.90;;;;;;5091681;28;20407;-82
2022/10/08 03:43:07;;;;;;;10.60;3.45;;;13.00;99.90;;;;;;5086025;28;20039;-81
2022/10/08 03:45:32;;;;;;;11.45;3.47;;;11.90;99.90;;;;;;5115068;28;20373;-81
2022/10/08 03:47:58;;;;;;;12.98;3.42;;;11.90;99.90;;;;;;5092232;28;20481;-82
2022/10/08 03:50:23;;;;;;;10.30;3.63;;;13.10;99.90;;;;;;5076265;28;20063;-82
2022/10/08 03:52:52;;;;;;;10.20;3.70;;;11.90;99.90;;;;;;5094044;28;20101;-82
2022/10/08 03:55:18;;;;;;;12.57;3.30;;;11.90;99.90;;;;;;5077056;28;20123;-82
2022/10/08 03:57:43;;;;;;;12.95;4.07;;;11.90;99.90;;;;;;5079983;28;20083;-81
2022/10/08 04:00:09;;;;;;;13.85;3.80;;;11.90;99.90;;;;;;5076316;28;20076;-82
2022/10/08 04:02:35;;;;;;;14.95;3.70;;;11.90;99.90;;;;;;5075900;28;20135;-82
2022/10/08 04:05:00;;;;;;;12.60;3.38;;;12.80;99.90;;;;;;5093972;28;20119;-81
2022/10/08 04:07:26;;;;;;;10.50;3.72;;;11.90;99.90;;;;;;5097503;28;20040;-82
2022/10/08 04:09:52;;;;;;;9.82;3.50;;;13.00;99.90;;;;;;5088006;28;20068;-81
2022/10/08 04:12:17;;;;;;;14.98;4.05;;;11.80;99.90;;;;;;5093378;28;20043;-82
2022/10/08 04:14:43;;;;;;;11.18;3.63;;;12.10;99.90;;;;;;5079437;28;20084;-82
2022/10/08 04:17:09;;;;;;;10.90;3.42;;;11.90;99.90;;;;;;5095921;28;20134;-81
2022/10/08 04:19:34;;;;;;;7.75;3.50;;;13.10;99.90;;;;;;5095872;28;20043;-82
2022/10/08 04:22:00;;;;;;;11.13;3.40;;;11.90;99.90;;;;;;5095966;28;20119;-81
2022/10/08 04:24:25;;;;;;;11.80;3.70;;;11.90;99.90;;;;;;5096208;28;20051;-82
2022/10/08 04:26:51;;;;;;;12.07;3.90;;;13.20;99.90;;;;;;5113461;28;20036;-82
2022/10/08 04:29:17;;;;;;;10.07;3.60;;;11.90;99.90;;;;;;5096075;28;20100;-82
2022/10/08 04:31:42;;;;;;;12.27;4.10;;;11.80;99.90;;;;;;5078605;28;20060;-82
2022/10/08 04:34:10;;;;;;;14.10;3.72;;;11.80;99.90;;;;;;5106437;28;20515;-81
2022/10/08 04:36:35;;;;;;;11.98;3.60;;;11.80;99.90;;;;;;5088574;28;20048;-81
2022/10/08 04:39:01;;;;;;;10.10;3.20;;;11.70;99.90;;;;;;5092985;28;20040;-82
2022/10/08 04:41:27;;;;;;;8.60;3.30;;;11.70;99.90;;;;;;5074946;28;20119;-81
2022/10/08 04:43:57;;;;;;;12.32;3.95;;;11.70;99.90;;;;;;5075137;28;20032;-82
2022/10/08 04:46:23;;;;;;;14.88;3.90;;;11.80;99.90;;;;;;5074371;28;21359;-81
2022/10/08 04:48:51;;;;;;;13.90;3.30;;;12.70;99.90;;;;;;5075082;28;20483;-82
2022/10/08 04:51:18;;;;;;;13.80;3.17;;;11.60;99.90;;;;;;5068778;28;20377;-81
2022/10/08 04:53:44;;;;;;;15.82;3.50;;;11.60;99.90;;;;;;5091369;28;20051;-81
2022/10/08 04:56:18;;;;;;;12.68;3.10;;;11.50;99.90;;;;;;5075240;28;20385;-81
2022/10/08 04:58:44;;;;;;;12.52;3.10;;;11.60;99.90;;;;;;5088917;28;20040;-81
2022/10/08 05:01:13;;;;;;;11.25;3.20;;;12.60;99.90;;;;;;5092653;28;20036;-82
2022/10/08 05:03:47;;;;;;;11.65;3.45;;;11.50;99.90;;;;;;5079117;28;20040;-81
2022/10/08 05:06:17;;;;;;;12.07;3.47;;;11.50;99.90;;;;;;5092358;28;20068;-81
2022/10/08 05:08:44;;;;;;;9.55;3.17;;;12.30;99.90;;;;;;5075836;28;20044;-81
2022/10/08 05:11:12;;;;;;;13.05;3.20;;;11.50;99.90;;;;;;5092513;28;20036;-81
2022/10/08 05:13:38;;;;;;;12.18;3.72;;;11.50;99.90;;;;;;5075995;28;20043;-81
2022/10/08 05:16:10;;;;;;;13.52;3.25;;;12.20;99.90;;;;;;5076396;28;20039;-82
2022/10/08 05:18:36;;;;;;;15.90;3.50;;;11.40;99.90;;;;;;5092501;28;20169;-81
2022/10/08 05:21:16;;;;;;;10.88;2.90;;;11.40;99.90;;;;;;5074469;28;20094;-81
2022/10/08 05:23:42;;;;;;;9.45;3.40;;;11.30;99.90;;;;;;5075820;28;20047;-82
2022/10/08 05:26:19;;;;;;;12.85;3.47;;;12.20;99.90;;;;;;5075545;28;20160;-82
2022/10/08 05:28:47;;;;;;;14.02;3.40;;;11.30;99.90;;;;;;5070328;28;20404;-81
2022/10/08 05:31:15;;;;;;;13.27;3.45;;;11.80;99.90;;;;;;5102222;28;20040;-82
2022/10/08 05:33:41;;;;;;;17.42;3.45;;;11.20;99.90;;;;;;5111170;28;20055;-81
2022/10/08 05:36:17;;;;;;;12.90;3.70;;;11.40;99.90;;;;;;5107902;28;20089;-81
2022/10/08 05:38:43;;;;;;;16.73;3.75;;;12.10;99.90;;;;;;5094560;28;20043;-81
2022/10/08 05:41:18;;;;;;;12.82;3.35;;;12.20;99.90;;;;;;5112591;28;20040;-81
2022/10/08 05:43:44;;;;;;;17.23;3.75;;;11.20;99.90;;;;;;5094612;28;20042;-81
2022/10/08 05:46:10;;;;;;;14.57;3.70;;;12.20;99.90;;;;;;5112589;28;20040;-81
2022/10/08 05:48:36;;;;;;;10.90;3.22;;;11.10;99.90;;;;;;5075745;28;20131;-81
2022/10/08 05:51:10;;;;;;;15.23;3.42;;;11.20;99.90;;;;;;5078652;28;20118;-81
2022/10/08 05:53:39;;;;;;;11.95;3.83;;;11.10;99.90;;;;;;5091385;28;20040;-82
2022/10/08 05:56:07;;;;;;;12.00;3.58;;;11.10;99.90;;;;;;5093331;28;20036;-82
2022/10/08 05:58:35;;;;;;;11.20;3.33;;;11.10;99.90;;;;;;5112129;28;20043;-82
2022/10/08 06:01:03;;;;;;;9.40;2.97;;;11.00;99.90;;;;;;5087443;28;20044;-82
2022/10/08 06:03:29;;;;;;;12.38;3.33;;;12.10;99.90;;;;;;5094195;28;20314;-82
2022/10/08 06:06:04;;;;;;;9.32;3.00;;;11.10;99.90;;;;;;5111958;28;20032;-82
2022/10/08 06:08:30;;;;;;;11.77;2.93;;;11.10;99.90;;;;;;5090236;28;20416;-82
2022/10/08 06:10:57;;;;;;;10.20;3.13;;;11.10;99.90;;;;;;5105751;28;20324;-82
2022/10/08 06:13:23;;;;;;;15.30;3.08;;;12.10;99.90;;;;;;5091500;28;20048;-82
2022/10/08 06:16:06;;;;;;;12.20;2.90;;;11.60;99.90;;;;;;5093618;28;20043;-82
2022/10/08 06:18:35;;;;;;;14.27;3.00;;;11.10;99.90;;;;;;5111352;28;20476;-82
2022/10/08 06:21:05;;;;;;;13.15;3.17;;;12.10;99.90;;;;;;5112150;28;20079;-82
2022/10/08 06:23:31;;;;;;;13.93;2.80;;;11.20;99.90;;;;;;5110505;28;20052;-82
2022/10/08 06:26:05;;;;;;;14.55;3.15;;;12.10;99.90;;;;;;5111631;28;20066;-82
2022/10/08 06:28:32;;;;;;;10.93;2.83;;;11.30;99.90;;;;;;5076271;28;20452;-82
2022/10/08 06:30:58;;;;;;;12.10;3.55;;;11.30;99.90;;;;;;5091133;28;20067;-82
2022/10/08 06:33:24;;;;;;;11.63;2.67;;;11.60;99.90;;;;;;5076026;28;20051;-82
2022/10/08 06:35:50;;;;;;;9.98;2.70;;;11.30;99.90;;;;;;5110563;28;20105;-82
2022/10/08 06:38:16;;;;;;;12.45;2.72;;;11.30;99.90;;;;;;5109318;28;20044;-78
2022/10/08 06:40:42;;;;;;;16.83;3.08;;;11.70;99.90;;;;;;5095210;28;20040;-78
2022/10/08 06:43:16;;;;;;;16.67;3.10;;;11.50;99.90;;;;;;5110871;28;20035;-78
2022/10/08 06:45:43;;;;;;;14.48;3.42;;;12.20;99.90;;;;;;5114128;28;20491;-78
2022/10/08 06:48:09;;;;;;;11.40;2.58;;;12.80;99.90;;;;;;5095135;28;20054;-78
2022/10/08 06:50:36;;;;;;;12.50;2.80;;;12.80;99.90;;;;;;5116120;28;20381;-78
2022/10/08 06:53:04;;;;;;;12.05;2.60;;;13.10;99.90;;;;;;5097588;28;20039;-78
2022/10/08 06:55:34;;;;;;;16.63;2.78;;;12.80;99.90;;;;;;5115730;28;20396;-78
2022/10/08 06:58:00;;;;;;;8.48;1.73;;;12.10;99.90;;;;;;5114368;28;20506;-78
2022/10/08 07:00:27;;;;;;;10.23;2.00;;;12.10;99.90;;;;;;5115780;28;20051;-78
2022/10/08 07:02:52;;;;;;;6.32;2.05;;;12.00;99.90;;;;;;5097081;28;20126;-78
2022/10/08 07:05:18;;;;;;;6.20;1.70;;;12.80;99.90;;;;;;5115876;28;20519;-78
2022/10/08 07:07:44;;;;;;;8.60;1.98;;;12.70;99.90;;;;;;5115579;28;20028;-78
2022/10/08 07:10:10;;;;;;;8.40;1.98;;;12.30;99.90;;;;;;5115576;28;20312;-78
2022/10/08 07:12:35;;;;;;;8.77;1.88;;;11.90;99.90;;;;;;5079955;28;20036;-77
2022/10/08 07:15:01;;;;;;;5.90;1.85;;;11.90;99.90;;;;;;5115782;28;20372;-78
2022/10/08 07:17:28;;;;;;;7.95;1.88;;;12.90;99.90;;;;;;5114982;28;20054;-78
2022/10/08 07:19:56;;;;;;;5.85;1.70;;;11.90;99.90;;;;;;5097198;28;20054;-78
2022/10/08 07:22:23;;;;;;;5.57;1.63;;;11.90;99.90;;;;;;5096709;28;20435;-78
2022/10/08 07:24:49;;;;;;;8.63;1.92;;;13.00;99.90;;;;;;5096066;28;20131;-78
2022/10/08 07:27:16;;;;;;;11.07;2.05;;;12.20;99.90;;;;;;5115065;28;20071;-78
2022/10/08 07:29:42;;;;;;;8.48;2.10;;;12.30;99.90;;;;;;5115354;28;20051;-78
2022/10/08 07:32:07;;;;;;;7.93;2.15;;;13.20;99.90;;;;;;5096604;28;20122;-78
2022/10/08 07:34:33;;;;;;;10.35;2.15;;;13.10;99.90;;;;;;5093158;28;20054;-78
2022/10/08 07:36:59;;;;;;;8.80;2.30;;;12.50;99.90;;;;;;5094001;28;20498;-78
2022/10/08 07:39:24;;;;;;;6.43;2.10;;;12.60;99.90;;;;;;5076363;28;20044;-78
2022/10/08 07:41:50;;;;;;;7.90;1.73;;;14.00;99.90;;;;;;5093854;28;20397;-78
2022/10/08 07:44:16;;;;;;;5.22;1.70;;;13.40;99.90;;;;;;5076243;28;20055;-78
2022/10/08 07:46:44;;;;;;;9.35;1.98;;;14.10;99.90;;;;;;5075952;28;20580;-78
2022/10/08 07:49:10;;;;;;;8.18;1.83;;;13.70;99.90;;;;;;5093886;28;20036;-78
2022/10/08 07:51:37;;;;;;;7.25;1.92;;;13.60;99.90;;;;;;5075766;28;20059;-78
2022/10/08 07:54:05;;;;;;;10.57;2.45;;;12.70;99.90;;;;;;5094415;28;20191;-78
2022/10/08 07:56:31;;;;;;;11.52;2.42;;;13.10;99.90;;;;;;5075747;28;20065;-77
2022/10/08 07:58:58;;;;;;;8.80;1.95;;;13.40;99.90;;;;;;5112703;28;20044;-79
2022/10/08 08:01:27;;;;;;;9.57;2.22;;;14.80;99.90;;;;;;5094108;28;20040;-78
2022/10/08 08:03:58;;;;;;;8.23;2.30;;;14.90;99.90;;;;;;5113379;28;20087;-79
2022/10/08 08:06:24;;;;;;;6.95;1.90;;;14.50;99.90;;;;;;5114405;28;20061;-79
2022/10/08 08:08:50;;;;;;;6.55;1.75;;;14.60;99.90;;;;;;5094696;28;20096;-78
2022/10/08 08:11:19;;;;;;;6.88;1.95;;;14.80;99.90;;;;;;5094270;28;20654;-78
2022/10/08 08:13:45;;;;;;;8.43;1.70;;;15.20;99.90;;;;;;5075663;28;20086;-78
2022/10/08 08:16:12;;;;;;;9.02;1.75;;;;;;;;;;5073460;28;20044;-77
2022/10/08 08:18:39;;;;;;;7.20;1.70;;;;;;;;;;5074847;28;20047;-77
2022/10/08 08:21:07;;;;;;;3.85;1.40;;;;;;;;;;5075424;28;20490;-77
2022/10/08 08:23:40;;;;;;;7.13;1.83;;;;;;;;;;5093682;28;20093;-77
2022/10/08 08:26:17;;;;;;;8.60;2.05;;;;;;;;;;5075147;28;20481;-78
2022/10/08 08:28:43;;;;;;;7.53;1.92;;;;;;;;;;5093725;28;20119;-78
2022/10/08 08:31:10;;;;;;;8.27;1.90;;;;;;;;;;5074587;28;20055;-78
2022/10/08 08:33:36;;;;;;;6.93;2.30;;;;;;;;;;5073833;28;20055;-78
2022/10/08 08:36:02;;;;;;;6.53;1.85;;;;;;;;;;5057947;28;20515;-78
2022/10/08 08:38:28;;;;;;;11.05;2.72;;;;;;;;;;5075153;28;20131;-78
2022/10/08 08:40:56;;;;;;;5.90;1.60;;;;;;;;;;5092808;28;20123;-78
2022/10/08 08:43:22;;;;;;;6.15;1.63;;;;;;;;;;5075454;28;20055;-78
2022/10/08 08:45:48;;;;;;;7.20;2.10;;;;;;;;;;5092858;28;20036;-78
2022/10/08 08:48:23;;;;;;;4.80;1.48;;;15.10;99.90;;;;;;5074455;28;20051;-78
2022/10/08 08:50:51;;;;;;;5.35;1.80;;;15.70;99.90;;;;;;5074672;28;20389;-79
2022/10/08 08:53:18;;;;;;;5.43;1.55;;;15.60;99.90;;;;;;5092701;28;20077;-79
2022/10/08 08:55:47;;;;;;;7.63;1.70;;;15.60;99.90;;;;;;5074440;28;20048;-79
2022/10/08 08:58:22;;;;;;;6.40;1.42;;;15.40;99.90;;;;;;5102791;28;20129;-79
2022/10/08 09:00:53;;;;;;;8.13;1.77;;;;;;;;;;5094212;28;20146;-78
2022/10/08 09:03:23;;;;;;;10.02;2.47;;;;;;;;;;5112368;28;20047;-79
2022/10/08 09:05:51;;;;;;;8.52;2.30;;;;;;;;;;5112974;28;20067;-79
2022/10/08 09:08:22;;;;;;;7.55;2.25;;;;;;;;;;5112157;28;20027;-78
2022/10/08 09:11:00;;;;;;;12.52;2.47;;;;;;;;;;5094686;28;20058;-79
2022/10/08 09:13:31;;;;;;;8.38;2.22;;;;;;;;;;5112768;28;20491;-78
2022/10/08 09:15:57;;;;;;;7.20;1.85;;;;;;;;;;5092847;28;20043;-80
2022/10/08 09:18:23;;;;;;;10.25;2.63;;;;;;;;;;5098113;28;20035;-80
2022/10/08 09:20:49;;;;;;;8.18;2.08;;;;;;;;;;5094238;28;20091;-80
2022/10/08 09:23:17;;;;;;;8.73;1.98;;;;;;;;;;5108157;28;20044;-80
2022/10/08 09:25:46;;;;;;;12.32;2.00;;;;;;;;;;5112628;28;20039;-81
2022/10/08 09:28:32;;;;;;;10.55;2.13;;;;;;;;;;5077807;28;20054;-80
2022/10/08 09:31:10;;;;;;;12.90;2.08;;;;;;;;;;5094049;28;20089;-79
2022/10/08 09:33:38;;;;;;;7.57;1.65;;;15.30;99.90;;;;;;5112871;28;20520;-79
2022/10/08 09:36:05;;;;;;;6.68;1.83;;;17.10;99.90;;;;;;5096141;28;20081;-81
2022/10/08 09:38:36;;;;;;;10.90;2.08;;;16.80;99.90;;;;;;5087769;28;20054;-83
2022/10/08 09:41:06;;;;;;;9.75;1.98;;;;;;;;;;5073561;28;20044;-79
2022/10/08 09:43:34;;;;;;;9.32;2.25;;;;;;;;;;5091753;28;20454;-79
2022/10/08 09:46:03;;;;;;;8.77;2.15;;;;;;;;;;5097586;28;20150;-79
2022/10/08 09:48:30;;;;;;;10.52;1.77;;;;;;;;;;5080345;28;20115;-79
2022/10/08 09:51:04;;;;;;;6.63;1.90;;;;;;;;;;5092201;28;20043;-80
2022/10/08 09:53:38;;;;;;;6.20;1.50;;;;;;;;;;5103730;28;20059;-79
2022/10/08 09:56:06;;;;;;;7.70;1.67;;;16.60;99.90;;;;;;5091574;28;20040;-81
2022/10/08 09:58:34;;;;;;;7.60;1.63;;;16.90;99.90;;;;;;5093023;28;20489;-80
2022/10/08 10:01:13;;;;;;;8.82;1.88;;;16.50;99.90;;;;;;5073617;28;20192;-81
2022/10/08 10:03:40;;;;;;;10.60;2.25;;;16.10;99.90;;;;;;5092252;28;20092;-81
2022/10/08 10:06:06;;;;;;;8.18;1.90;;;15.80;99.90;;;;;;5073644;28;20067;-81
2022/10/08 10:09:06;;;;;;;6.75;1.67;;;15.70;99.90;;;;;;5091986;28;20040;-80
2022/10/08 10:11:48;;;;;;;8.30;2.00;;;;;;;;;;5029092;28;20193;-80
2022/10/08 10:14:24;;;;;;;11.27;1.90;;;;;;;;;;5116817;28;20086;-80
2022/10/08 10:16:55;;;;;;;9.55;2.00;;;;;;;;;;5116075;28;20043;-80
2022/10/08 10:19:23;;;;;;;10.70;2.65;;;;;;;;;;5116464;28;20048;-80
2022/10/08 10:21:52;;;;;;;9.07;2.10;;;;;;;;;;5098001;28;20368;-80
2022/10/08 10:24:35;;;;;;;9.25;2.45;;;;;;;;;;5086551;28;20055;-80
2022/10/08 10:27:27;;;;;;;7.85;1.73;;;;;;;;;;5097042;28;20067;-80
2022/10/08 10:29:56;;;;;;;9.93;1.90;;;;;;;;;;5107577;28;20031;-79
2022/10/08 10:32:25;;;;;;;10.05;1.95;;;;;;;;;;5096665;28;20054;-79
2022/10/08 10:34:58;;;;;;;13.10;2.33;;;;;;;;;;5095232;28;20036;-80
2022/10/08 10:37:29;;;;;;;7.82;1.83;;;;;;;;;;5095615;28;20067;-86
2022/10/08 10:40:09;;;;;;;7.55;1.70;;;;;;;;;;5077411;28;20044;-79
2022/10/08 10:42:39;;;;;;;7.70;2.08;;;;;;;;;;5095747;28;20044;-81
2022/10/08 10:45:13;;;;;;;9.60;1.70;;;;;;;;;;5095587;28;20054;-83
2022/10/08 10:47:40;;;;;;;8.40;2.03;;;;;;;;;;5095164;28;20085;-80
2022/10/08 10:50:12;;;;;;;8.90;2.00;;;16.10;99.90;;;;;;5091979;28;20061;-80
2022/10/08 10:53:00;;;;;;;8.52;2.05;;;22.60;97.90;;;;;;5097246;28;20051;-82
2022/10/08 10:55:45;;;;;;;9.15;1.90;;;23.10;97.50;;;;;;5114929;28;20036;-82
2022/10/08 10:58:34;;;;;;;7.97;1.90;;;23.50;96.70;;;;;;5097364;28;20051;-82
2022/10/08 11:01:34;;;;;;;8.32;2.20;;;23.10;96.70;;;;;;5097358;28;20048;-81
2022/10/08 11:04:19;;;;;;;7.93;2.03;;;;;;;;;;5100661;28;20040;-80
2022/10/08 11:07:04;;;;;;;9.93;2.17;;;;;;;;;;5099138;28;20506;-81
2022/10/08 11:10:02;;;;;;;9.40;2.05;;;;;;;;;;5102768;28;20270;-80
2022/10/08 11:12:45;;;;;;;6.63;1.70;;;;;;;;;;5022292;28;20485;-81
2022/10/08 11:15:20;;;;;;;7.32;1.90;;;;;;;;;;5115325;28;20089;-81
2022/10/08 11:17:55;;;;;;;7.88;2.00;;;;;;;;;;5114239;28;20096;-80
2022/10/08 11:20:38;;;;;;;8.70;2.33;;;;;;;;;;5114584;28;20044;-81
2022/10/08 11:23:23;;;;;;;9.18;1.98;;;;;;;;;;5096766;28;20039;-84
2022/10/08 11:25:54;;;;;;;9.70;2.10;;;;;;;;;;5078514;28;20151;-84
2022/10/08 11:28:26;;;;;;;8.07;2.00;;;;;;;;;;5096666;28;20051;-83
2022/10/08 11:31:01;;;;;;;6.53;1.88;;;;;;;;;;5096327;28;20069;-83
2022/10/08 11:33:28;;;;;;;7.40;2.00;;;;;;;;;;5096524;28;20055;-83
2022/10/08 11:35:57;;;;;;;8.25;1.92;;;;;;;;;;5100735;28;20430;-83
2022/10/08 11:38:41;;;;;;;9.55;1.90;;;22.40;97.60;;;;;;5076312;28;20055;-84
2022/10/08 11:41:17;;;;;;;7.13;1.80;;;18.70;99.90;;;;;;5076175;28;20039;-84
2022/10/08 11:43:56;;;;;;;4.15;1.23;;;18.20;99.90;;;;;;5061827;28;20400;-80
2022/10/08 11:46:31;;;;;;;5.18;1.25;;;17.60;99.90;;;;;;5084165;28;20119;-81
2022/10/08 11:49:01;;;;;;;5.43;1.43;;;17.50;99.90;;;;;;5115039;28;20430;-82
2022/10/08 11:51:32;;;;;;;5.22;1.38;;;17.20;99.90;;;;;;5075544;28;20051;-82
2022/10/08 11:54:16;;;;;;;6.40;1.38;;;17.00;99.90;;;;;;5076721;28;20060;-81
2022/10/08 11:56:48;;;;;;;8.23;1.40;;;16.60;99.90;;;;;;5076268;28;20126;-81
2022/10/08 11:59:29;;;;;;;5.10;1.52;;;16.50;99.90;;;;;;5075734;28;20051;-82
2022/10/08 12:01:56;;;;;;;7.40;1.85;;;;;;;;;;5093332;28;20044;-80
2022/10/08 12:04:27;;;;;;;4.18;1.52;;;;;;;;;;5093696;28;20035;-80
2022/10/08 12:07:13;;;;;;;5.72;1.60;;;16.30;99.90;;;;;;5087030;28;20048;-81
2022/10/08 12:10:03;;;;;;;5.20;1.70;;;24.80;98.00;;;;;;5095053;28;20036;-82
2022/10/08 12:12:47;;;;;;;5.00;1.48;;;27.80;94.40;;;;;;5093307;28;20372;-83
2022/10/08 12:15:22;;;;;;;9.90;1.60;;;29.90;91.10;;;;;;5102294;28;20473;-83
2022/10/08 12:17:52;;;;;;;6.30;1.73;;;31.50;89.10;;;;;;5093055;28;20054;-82
2022/10/08 12:20:22;;;;;;;7.75;2.00;;;31.90;85.30;;;;;;5106723;28;20055;-83
2022/10/08 12:22:59;;;;;;;8.35;1.80;;;32.20;84.30;;;;;;5095250;28;20039;-82
2022/10/08 12:25:44;;;;;;;6.63;1.80;;;32.90;81.30;;;;;;5096084;28;20070;-83
2022/10/08 12:28:19;;;;;;;7.70;1.95;;;33.40;78.30;;;;;;5113984;28;20051;-82
2022/10/08 12:30:47;;;;;;;9.10;2.25;;;32.40;77.30;;;;;;5113717;28;20047;-82
2022/10/08 12:33:14;;;;;;;8.52;2.13;;;;;;;;;;5095359;28;20055;-81
2022/10/08 12:36:00;;;;;;;6.97;1.90;;;;;;;;;;5084376;28;20151;-81
2022/10/08 12:38:49;;;;;;;8.18;1.92;;;;;;;;;;5074881;28;20610;-81
2022/10/08 12:41:20;;;;;;;9.65;2.20;;;;;;;;;;5065287;28;20184;-81
2022/10/08 12:43:53;;;;;;;5.20;1.63;;;;;;;;;;5104887;28;20063;-80
2022/10/08 12:46:38;;;;;;;5.63;1.38;;;;;;;;;;5099849;28;20087;-81
2022/10/08 12:49:21;;;;;;;5.18;1.50;;;;;;;;;;5101494;28;20092;-81
2022/10/08 12:51:50;;;;;;;5.25;1.52;;;;;;;;;;5082560;28;20047;-81
2022/10/08 12:54:22;;;;;;;6.72;1.45;;;;;;;;;;5094146;28;20445;-81
2022/10/08 12:56:49;;;;;;;6.47;1.50;;;;;;;;;;5085523;28;20167;-81
2022/10/08 12:59:17;;;;;;;7.57;1.60;;;31.00;76.60;;;;;;5098482;28;20458;-81
2022/10/08 13:01:44;;;;;;;7.40;1.42;;;20.40;91.50;;;;;;5101615;28;20052;-81
2022/10/08 13:04:24;;;;;;;8.23;1.98;;;19.40;93.30;;;;;;5092447;28;20083;-81
2022/10/08 13:06:51;;;;;;;3.45;1.30;;;18.70;96.10;;;;;;5110280;28;20115;-82
2022/10/08 13:09:29;;;;;;;6.78;1.90;;;17.90;97.90;;;;;;5094476;28;20035;-82
2022/10/08 13:11:57;;;;;;;4.70;1.98;;;17.40;99.90;;;;;;5077195;28;20036;-82
2022/10/08 13:14:27;;;;;;;6.45;2.35;;;17.00;99.90;;;;;;5112916;28;20093;-81
2022/10/08 13:16:54;;;;;;;9.70;2.67;;;16.80;99.90;;;;;;5111641;28;20051;-81
2022/10/08 13:19:30;;;;;;;4.95;2.10;;;16.80;99.90;;;;;;5112056;28;20039;-81
2022/10/08 13:21:59;;;;;;;4.95;1.80;;;16.90;99.90;;;;;;5093999;28;20059;-82
2022/10/08 13:24:24;;;;;;;4.18;1.75;;;17.20;99.90;;;;;;5112769;28;20415;-81
2022/10/08 13:26:53;;;;;;;5.47;1.33;;;17.30;99.90;;;;;;5094142;28;20051;-82
2022/10/08 13:29:21;;;;;;;4.78;1.50;;;17.60;99.90;;;;;;5090700;28;20047;-84